sensor_id;sensor_type;location;lat;lon;timestamp;pressure;altitude;pressure_sealevel;temperature;humidity
13952;BME280;39535;52.192;9.886;2023-07-13T00:02:12;100512.00;;;20.29;70.87
13952;BME280;39535;52.192;9.886;2023-07-13T00:04:39;100503.38;;;20.25;70.57
13952;BME280;39535;52.192;9.886;2023-07-13T00:07:06;100505.25;;;20.23;70.71
13952;BME280;39535;52.192;9.886;2023-07-13T00:09:33;100497.38;;;20.21;70.86
13952;BME280;39535;52.192;9.886;2023-07-13T00:12:01;100509.78;;;20.21;71.15
13952;BME280;39535;52.192;9.886;2023-07-13T00:14:28;100497.59;;;20.18;71.31
13952;BME280;39535;52.192;9.886;2023-07-13T00:16:56;100488.78;;;20.18;71.57
13952;BME280;39535;52.192;9.886;2023-07-13T00:19:24;100482.88;;;20.13;71.79
13952;BME280;39535;52.192;9.886;2023-07-13T00:21:50;100484.69;;;20.12;71.92
13952;BME280;39535;52.192;9.886;2023-07-13T00:24:21;100486.56;;;20.10;71.99
13952;BME280;39535;52.192;9.886;2023-07-13T00:26:49;100478.78;;;20.07;72.26
13952;BME280;39535;52.192;9.886;2023-07-13T00:29:15;100480.50;;;20.08;71.76
13952;BME280;39535;52.192;9.886;2023-07-13T00:31:42;100473.56;;;20.06;71.95
13952;BME280;39535;52.192;9.886;2023-07-13T00:34:09;100468.28;;;20.06;72.09
13952;BME280;39535;52.192;9.886;2023-07-13T00:36:37;100465.13;;;19.99;72.57
13952;BME280;39535;52.192;9.886;2023-07-13T00:39:03;100461.81;;;19.95;72.60
13952;BME280;39535;52.192;9.886;2023-07-13T00:41:30;100455.66;;;19.95;72.76
13952;BME280;39535;52.192;9.886;2023-07-13T00:43:57;100441.72;;;19.91;73.29
13952;BME280;39535;52.192;9.886;2023-07-13T00:46:26;100431.22;;;19.90;73.61
13952;BME280;39535;52.192;9.886;2023-07-13T00:48:54;100434.75;;;19.90;73.65
13952;BME280;39535;52.192;9.886;2023-07-13T00:51:27;100443.63;;;19.89;72.60
13952;BME280;39535;52.192;9.886;2023-07-13T00:53:58;100472.84;;;19.88;72.22
13952;BME280;39535;52.192;9.886;2023-07-13T00:56:26;100455.25;;;19.87;72.90
13952;BME280;39535;52.192;9.886;2023-07-13T00:58:54;100464.47;;;19.79;72.40
13952;BME280;39535;52.192;9.886;2023-07-13T01:01:20;100456.44;;;19.81;72.73
13952;BME280;39535;52.192;9.886;2023-07-13T01:03:47;100460.72;;;19.83;72.26
13952;BME280;39535;52.192;9.886;2023-07-13T01:06:13;100466.09;;;19.82;72.14
13952;BME280;39535;52.192;9.886;2023-07-13T01:08:41;100460.13;;;19.78;72.42
13952;BME280;39535;52.192;9.886;2023-07-13T01:11:09;100462.19;;;19.73;72.06
13952;BME280;39535;52.192;9.886;2023-07-13T01:13:35;100481.03;;;19.67;71.72
13952;BME280;39535;52.192;9.886;2023-07-13T01:16:04;100490.78;;;19.67;71.71
13952;BME280;39535;52.192;9.886;2023-07-13T01:18:33;100486.16;;;19.54;71.44
13952;BME280;39535;52.192;9.886;2023-07-13T01:21:02;100495.81;;;19.55;71.06
13952;BME280;39535;52.192;9.886;2023-07-13T01:23:30;100476.84;;;19.47;71.98
13952;BME280;39535;52.192;9.886;2023-07-13T01:25:58;100477.97;;;19.43;71.96
13952;BME280;39535;52.192;9.886;2023-07-13T01:28:26;100484.38;;;19.39;71.36
13952;BME280;39535;52.192;9.886;2023-07-13T01:30:54;100496.91;;;19.35;71.12
13952;BME280;39535;52.192;9.886;2023-07-13T01:33:20;100506.47;;;19.38;71.23
13952;BME280;39535;52.192;9.886;2023-07-13T01:35:47;100504.00;;;19.35;71.14
13952;BME280;39535;52.192;9.886;2023-07-13T01:38:19;100505.19;;;19.29;70.88
13952;BME280;39535;52.192;9.886;2023-07-13T01:40:46;100508.00;;;19.26;70.98
13952;BME280;39535;52.192;9.886;2023-07-13T01:43:13;100525.75;;;19.24;70.22
13952;BME280;39535;52.192;9.886;2023-07-13T01:45:39;100531.22;;;19.21;70.97
13952;BME280;39535;52.192;9.886;2023-07-13T01:48:06;100527.69;;;19.20;70.73
13952;BME280;39535;52.192;9.886;2023-07-13T01:50:32;100537.75;;;19.14;70.34
13952;BME280;39535;52.192;9.886;2023-07-13T01:52:59;100548.75;;;19.06;70.10
13952;BME280;39535;52.192;9.886;2023-07-13T01:55:27;100539.72;;;19.10;70.48
13952;BME280;39535;52.192;9.886;2023-07-13T01:57:54;100530.84;;;19.11;70.49
13952;BME280;39535;52.192;9.886;2023-07-13T02:00:21;100548.50;;;19.11;70.39
13952;BME280;39535;52.192;9.886;2023-07-13T02:02:48;100540.81;;;19.06;70.52
13952;BME280;39535;52.192;9.886;2023-07-13T02:05:14;100546.44;;;19.00;70.64
13952;BME280;39535;52.192;9.886;2023-07-13T02:07:41;100526.38;;;18.96;71.01
13952;BME280;39535;52.192;9.886;2023-07-13T02:10:10;100513.97;;;18.96;71.60
13952;BME280;39535;52.192;9.886;2023-07-13T02:12:38;100530.56;;;18.82;70.02
13952;BME280;39535;52.192;9.886;2023-07-13T02:15:05;100528.50;;;18.89;71.45
13952;BME280;39535;52.192;9.886;2023-07-13T02:17:33;100517.13;;;18.87;71.13
13952;BME280;39535;52.192;9.886;2023-07-13T02:20:00;100528.00;;;18.81;71.48
13952;BME280;39535;52.192;9.886;2023-07-13T02:22:27;100504.91;;;18.84;71.79
13952;BME280;39535;52.192;9.886;2023-07-13T02:24:53;100506.69;;;18.84;72.08
13952;BME280;39535;52.192;9.886;2023-07-13T02:27:20;100484.03;;;18.78;72.64
13952;BME280;39535;52.192;9.886;2023-07-13T02:29:47;100469.19;;;18.76;73.20
13952;BME280;39535;52.192;9.886;2023-07-13T02:32:16;100443.84;;;18.72;74.15
13952;BME280;39535;52.192;9.886;2023-07-13T02:34:42;100456.50;;;18.65;73.10
13952;BME280;39535;52.192;9.886;2023-07-13T02:37:09;100448.59;;;18.65;72.77
13952;BME280;39535;52.192;9.886;2023-07-13T02:39:35;100492.75;;;18.63;72.17
13952;BME280;39535;52.192;9.886;2023-07-13T02:42:02;100475.53;;;18.56;71.66
13952;BME280;39535;52.192;9.886;2023-07-13T02:44:29;100504.44;;;18.59;71.34
13952;BME280;39535;52.192;9.886;2023-07-13T02:46:57;100509.31;;;18.66;71.42
13952;BME280;39535;52.192;9.886;2023-07-13T02:49:23;100504.81;;;18.69;71.87
13952;BME280;39535;52.192;9.886;2023-07-13T02:51:49;100484.94;;;18.61;73.39
13952;BME280;39535;52.192;9.886;2023-07-13T02:54:16;100514.16;;;18.58;71.27
13952;BME280;39535;52.192;9.886;2023-07-13T02:56:42;100524.59;;;18.44;71.20
13952;BME280;39535;52.192;9.886;2023-07-13T02:59:09;100522.53;;;18.49;72.08
13952;BME280;39535;52.192;9.886;2023-07-13T03:01:36;100495.25;;;18.49;73.11
13952;BME280;39535;52.192;9.886;2023-07-13T03:04:04;100501.25;;;18.35;72.54
13952;BME280;39535;52.192;9.886;2023-07-13T03:06:31;100490.53;;;18.38;72.97
13952;BME280;39535;52.192;9.886;2023-07-13T03:08:58;100467.59;;;18.38;73.47
13952;BME280;39535;52.192;9.886;2023-07-13T03:11:25;100470.47;;;18.34;73.23
13952;BME280;39535;52.192;9.886;2023-07-13T03:13:51;100455.63;;;18.31;73.96
13952;BME280;39535;52.192;9.886;2023-07-13T03:16:18;100424.94;;;18.29;74.56
13952;BME280;39535;52.192;9.886;2023-07-13T03:18:46;100416.94;;;18.30;74.82
13952;BME280;39535;52.192;9.886;2023-07-13T03:21:14;100397.66;;;18.28;75.66
13952;BME280;39535;52.192;9.886;2023-07-13T03:23:40;100395.09;;;18.26;75.75
13952;BME280;39535;52.192;9.886;2023-07-13T03:26:11;100398.69;;;18.25;75.50
13952;BME280;39535;52.192;9.886;2023-07-13T03:28:39;100404.94;;;18.23;75.40
13952;BME280;39535;52.192;9.886;2023-07-13T03:31:07;100405.44;;;18.14;75.36
13952;BME280;39535;52.192;9.886;2023-07-13T03:33:34;100397.53;;;18.14;76.00
13952;BME280;39535;52.192;9.886;2023-07-13T03:36:02;100401.31;;;18.08;76.00
13952;BME280;39535;52.192;9.886;2023-07-13T03:38:29;100383.16;;;18.02;76.50
13952;BME280;39535;52.192;9.886;2023-07-13T03:40:56;100385.78;;;18.02;76.49
13952;BME280;39535;52.192;9.886;2023-07-13T03:43:22;100376.53;;;17.93;76.97
13952;BME280;39535;52.192;9.886;2023-07-13T03:45:48;100382.75;;;17.92;76.12
13952;BME280;39535;52.192;9.886;2023-07-13T03:48:15;100393.84;;;17.99;76.24
13952;BME280;39535;52.192;9.886;2023-07-13T03:50:42;100395.56;;;18.00;76.63
13952;BME280;39535;52.192;9.886;2023-07-13T03:53:08;100391.91;;;18.02;76.35
13952;BME280;39535;52.192;9.886;2023-07-13T03:55:36;100406.13;;;18.00;75.46
13952;BME280;39535;52.192;9.886;2023-07-13T03:58:25;100422.19;;;17.95;74.51
13952;BME280;39535;52.192;9.886;2023-07-13T04:00:52;100448.59;;;17.95;74.11
13952;BME280;39535;52.192;9.886;2023-07-13T04:03:18;100451.19;;;17.97;73.84
13952;BME280;39535;52.192;9.886;2023-07-13T04:05:45;100470.31;;;18.02;73.43
13952;BME280;39535;52.192;9.886;2023-07-13T04:08:12;100464.84;;;18.05;73.83
13952;BME280;39535;52.192;9.886;2023-07-13T04:10:40;100475.13;;;18.11;73.83
13952;BME280;39535;52.192;9.886;2023-07-13T04:13:06;100467.63;;;17.84;74.29
13952;BME280;39535;52.192;9.886;2023-07-13T04:15:33;100462.75;;;17.94;73.91
13952;BME280;39535;52.192;9.886;2023-07-13T04:17:59;100465.34;;;17.96;74.77
13952;BME280;39535;52.192;9.886;2023-07-13T04:20:26;100467.97;;;17.77;74.18
13952;BME280;39535;52.192;9.886;2023-07-13T04:22:52;100465.59;;;17.90;73.98
13952;BME280;39535;52.192;9.886;2023-07-13T04:25:19;100464.63;;;17.92;74.43
13952;BME280;39535;52.192;9.886;2023-07-13T04:27:47;100458.97;;;18.00;74.46
13952;BME280;39535;52.192;9.886;2023-07-13T04:30:14;100453.34;;;17.70;75.24
13952;BME280;39535;52.192;9.886;2023-07-13T04:32:40;100444.16;;;17.78;75.69
13952;BME280;39535;52.192;9.886;2023-07-13T04:35:07;100444.59;;;17.88;75.40
13952;BME280;39535;52.192;9.886;2023-07-13T04:37:34;100446.84;;;17.96;74.80
13952;BME280;39535;52.192;9.886;2023-07-13T04:40:00;100446.53;;;18.02;74.91
13952;BME280;39535;52.192;9.886;2023-07-13T04:42:27;100468.22;;;18.09;74.19
13952;BME280;39535;52.192;9.886;2023-07-13T04:44:55;100474.56;;;18.04;74.03
13952;BME280;39535;52.192;9.886;2023-07-13T04:47:21;100474.50;;;18.06;74.44
13952;BME280;39535;52.192;9.886;2023-07-13T04:49:48;100467.16;;;17.94;74.85
13952;BME280;39535;52.192;9.886;2023-07-13T04:52:14;100482.44;;;18.06;74.89
13952;BME280;39535;52.192;9.886;2023-07-13T04:54:40;100466.28;;;18.12;75.33
13952;BME280;39535;52.192;9.886;2023-07-13T04:57:07;100477.38;;;18.19;74.92
13952;BME280;39535;52.192;9.886;2023-07-13T04:59:34;100488.91;;;18.18;74.05
13952;BME280;39535;52.192;9.886;2023-07-13T05:02:02;100504.44;;;18.24;73.67
13952;BME280;39535;52.192;9.886;2023-07-13T05:04:28;100488.53;;;18.25;74.53
13952;BME280;39535;52.192;9.886;2023-07-13T05:06:54;100498.06;;;18.28;74.09
13952;BME280;39535;52.192;9.886;2023-07-13T05:09:21;100499.69;;;18.31;74.77
13952;BME280;39535;52.192;9.886;2023-07-13T05:11:47;100504.75;;;18.35;74.66
13952;BME280;39535;52.192;9.886;2023-07-13T05:14:14;100505.44;;;18.39;74.55
13952;BME280;39535;52.192;9.886;2023-07-13T05:16:41;100518.28;;;18.46;74.52
13952;BME280;39535;52.192;9.886;2023-07-13T05:19:09;100509.25;;;18.51;74.91
13952;BME280;39535;52.192;9.886;2023-07-13T05:21:36;100528.41;;;18.56;74.11
13952;BME280;39535;52.192;9.886;2023-07-13T05:24:02;100543.41;;;18.55;73.61
13952;BME280;39535;52.192;9.886;2023-07-13T05:26:29;100563.22;;;18.64;73.55
13952;BME280;39535;52.192;9.886;2023-07-13T05:28:55;100556.72;;;18.71;73.86
13952;BME280;39535;52.192;9.886;2023-07-13T05:31:22;100548.78;;;18.71;73.71
13952;BME280;39535;52.192;9.886;2023-07-13T05:33:48;100560.63;;;18.81;73.72
13952;BME280;39535;52.192;9.886;2023-07-13T05:36:16;100573.59;;;18.86;73.78
13952;BME280;39535;52.192;9.886;2023-07-13T05:38:42;100582.38;;;18.87;73.05
13952;BME280;39535;52.192;9.886;2023-07-13T05:41:08;100603.84;;;18.80;72.55
13952;BME280;39535;52.192;9.886;2023-07-13T05:43:35;100615.22;;;18.82;72.95
13952;BME280;39535;52.192;9.886;2023-07-13T05:46:01;100593.72;;;18.71;73.50
13952;BME280;39535;52.192;9.886;2023-07-13T05:48:27;100587.34;;;18.75;73.48
13952;BME280;39535;52.192;9.886;2023-07-13T05:50:54;100606.00;;;18.72;73.08
13952;BME280;39535;52.192;9.886;2023-07-13T05:53:21;100600.91;;;18.87;72.72
13952;BME280;39535;52.192;9.886;2023-07-13T05:55:48;100618.03;;;18.97;72.39
13952;BME280;39535;52.192;9.886;2023-07-13T05:58:16;100626.19;;;18.92;71.81
13952;BME280;39535;52.192;9.886;2023-07-13T06:00:42;100635.06;;;18.91;71.87
13952;BME280;39535;52.192;9.886;2023-07-13T06:03:09;100638.25;;;18.98;72.03
13952;BME280;39535;52.192;9.886;2023-07-13T06:05:36;100656.53;;;19.02;71.58
13952;BME280;39535;52.192;9.886;2023-07-13T06:08:05;100665.09;;;18.90;71.86
13952;BME280;39535;52.192;9.886;2023-07-13T06:10:34;100646.09;;;18.82;72.29
13952;BME280;39535;52.192;9.886;2023-07-13T06:13:00;100653.94;;;18.47;71.81
13952;BME280;39535;52.192;9.886;2023-07-13T06:15:28;100636.00;;;18.54;72.28
13952;BME280;39535;52.192;9.886;2023-07-13T06:17:54;100615.88;;;18.69;73.25
13952;BME280;39535;52.192;9.886;2023-07-13T06:20:21;100607.34;;;18.81;73.05
13952;BME280;39535;52.192;9.886;2023-07-13T06:22:47;100640.25;;;18.93;71.52
13952;BME280;39535;52.192;9.886;2023-07-13T06:25:14;100676.06;;;19.00;70.08
13952;BME280;39535;52.192;9.886;2023-07-13T06:27:41;100708.59;;;19.02;69.53
13952;BME280;39535;52.192;9.886;2023-07-13T06:30:09;100739.31;;;19.04;68.53
13952;BME280;39535;52.192;9.886;2023-07-13T06:32:36;100777.38;;;19.02;68.21
13952;BME280;39535;52.192;9.886;2023-07-13T06:35:03;100799.47;;;18.63;68.01
13952;BME280;39535;52.192;9.886;2023-07-13T06:37:29;100798.97;;;18.55;67.92
13952;BME280;39535;52.192;9.886;2023-07-13T06:39:56;100786.00;;;18.69;68.52
13952;BME280;39535;52.192;9.886;2023-07-13T06:42:22;100783.75;;;18.79;68.15
13952;BME280;39535;52.192;9.886;2023-07-13T06:44:50;100755.69;;;18.95;69.24
13952;BME280;39535;52.192;9.886;2023-07-13T06:47:16;100807.03;;;18.91;66.94
13952;BME280;39535;52.192;9.886;2023-07-13T06:49:42;100821.81;;;18.95;66.94
13952;BME280;39535;52.192;9.886;2023-07-13T06:52:09;100841.97;;;18.98;66.93
13952;BME280;39535;52.192;9.886;2023-07-13T06:54:35;100848.66;;;18.67;66.67
13952;BME280;39535;52.192;9.886;2023-07-13T06:57:01;100838.66;;;18.74;67.51
13952;BME280;39535;52.192;9.886;2023-07-13T06:59:28;100836.78;;;18.76;66.96
13952;BME280;39535;52.192;9.886;2023-07-13T07:01:56;100837.00;;;18.52;67.90
13952;BME280;39535;52.192;9.886;2023-07-13T07:04:22;100815.44;;;18.61;68.36
13952;BME280;39535;52.192;9.886;2023-07-13T07:06:48;100804.91;;;18.79;68.06
13952;BME280;39535;52.192;9.886;2023-07-13T07:09:15;100808.22;;;18.84;67.96
13952;BME280;39535;52.192;9.886;2023-07-13T07:11:42;100823.63;;;18.74;67.15
13952;BME280;39535;52.192;9.886;2023-07-13T07:14:08;100818.75;;;18.85;67.49
13952;BME280;39535;52.192;9.886;2023-07-13T07:16:35;100810.47;;;18.73;67.83
13952;BME280;39535;52.192;9.886;2023-07-13T07:19:03;100823.50;;;18.58;67.65
13952;BME280;39535;52.192;9.886;2023-07-13T07:21:29;100810.41;;;18.36;68.26
13952;BME280;39535;52.192;9.886;2023-07-13T07:23:56;100812.38;;;18.12;67.61
13952;BME280;39535;52.192;9.886;2023-07-13T07:26:25;100781.03;;;18.23;68.58
13952;BME280;39535;52.192;9.886;2023-07-13T07:28:51;100783.84;;;18.39;68.35
13952;BME280;39535;52.192;9.886;2023-07-13T07:31:17;100787.19;;;18.43;67.82
13952;BME280;39535;52.192;9.886;2023-07-13T07:33:44;100818.44;;;18.54;67.20
13952;BME280;39535;52.192;9.886;2023-07-13T07:36:11;100814.22;;;18.50;67.26
13952;BME280;39535;52.192;9.886;2023-07-13T07:38:38;100801.44;;;18.59;68.22
13952;BME280;39535;52.192;9.886;2023-07-13T07:41:04;100824.66;;;18.72;67.05
13952;BME280;39535;52.192;9.886;2023-07-13T07:43:31;100828.16;;;18.53;66.68
13952;BME280;39535;52.192;9.886;2023-07-13T07:45:57;100845.44;;;18.60;66.81
13952;BME280;39535;52.192;9.886;2023-07-13T07:48:24;100840.59;;;18.70;66.91
13952;BME280;39535;52.192;9.886;2023-07-13T07:50:50;100863.78;;;18.84;65.66
13952;BME280;39535;52.192;9.886;2023-07-13T07:53:18;100882.16;;;18.87;65.82
13952;BME280;39535;52.192;9.886;2023-07-13T07:55:44;100907.88;;;18.63;65.06
13952;BME280;39535;52.192;9.886;2023-07-13T07:58:11;100885.00;;;18.82;66.46
13952;BME280;39535;52.192;9.886;2023-07-13T08:00:37;100882.91;;;18.70;65.82
13952;BME280;39535;52.192;9.886;2023-07-13T08:03:03;100891.25;;;18.81;65.71
13952;BME280;39535;52.192;9.886;2023-07-13T08:05:30;100875.69;;;18.93;65.96
13952;BME280;39535;52.192;9.886;2023-07-13T08:07:56;100888.59;;;18.81;65.06
13952;BME280;39535;52.192;9.886;2023-07-13T08:10:24;100870.09;;;18.61;66.10
13952;BME280;39535;52.192;9.886;2023-07-13T08:12:50;100864.22;;;18.54;67.01
13952;BME280;39535;52.192;9.886;2023-07-13T08:15:17;100836.16;;;18.52;68.04
13952;BME280;39535;52.192;9.886;2023-07-13T08:17:46;100827.22;;;18.54;67.36
13952;BME280;39535;52.192;9.886;2023-07-13T08:20:12;100832.16;;;18.62;66.77
13952;BME280;39535;52.192;9.886;2023-07-13T08:22:38;100837.94;;;18.70;66.73
13952;BME280;39535;52.192;9.886;2023-07-13T08:25:05;100854.84;;;18.87;65.89
13952;BME280;39535;52.192;9.886;2023-07-13T08:27:33;100897.44;;;18.80;65.18
13952;BME280;39535;52.192;9.886;2023-07-13T08:30:00;100913.19;;;19.02;64.85
13952;BME280;39535;52.192;9.886;2023-07-13T08:32:26;100918.84;;;19.14;64.89
13952;BME280;39535;52.192;9.886;2023-07-13T08:34:52;100921.47;;;19.33;64.94
13952;BME280;39535;52.192;9.886;2023-07-13T08:37:19;100938.81;;;19.21;63.90
13952;BME280;39535;52.192;9.886;2023-07-13T08:39:45;100954.94;;;19.34;64.40
13952;BME280;39535;52.192;9.886;2023-07-13T08:42:16;100948.22;;;19.45;64.42
13952;BME280;39535;52.192;9.886;2023-07-13T08:44:54;100945.84;;;19.39;63.97
13952;BME280;39535;52.192;9.886;2023-07-13T08:47:23;100939.72;;;19.20;64.47
13952;BME280;39535;52.192;9.886;2023-07-13T08:49:50;100946.00;;;18.98;64.37
13952;BME280;39535;52.192;9.886;2023-07-13T08:52:35;100948.31;;;19.25;64.40
13952;BME280;39535;52.192;9.886;2023-07-13T08:55:04;100956.88;;;18.92;63.93
13952;BME280;39535;52.192;9.886;2023-07-13T08:57:33;100932.56;;;19.22;65.11
13952;BME280;39535;52.192;9.886;2023-07-13T09:00:03;100937.56;;;19.28;64.24
13952;BME280;39535;52.192;9.886;2023-07-13T09:02:41;100941.22;;;19.44;63.18
13952;BME280;39535;52.192;9.886;2023-07-13T09:05:12;100946.22;;;19.68;64.40
13952;BME280;39535;52.192;9.886;2023-07-13T09:07:50;100982.91;;;19.77;62.90
13952;BME280;39535;52.192;9.886;2023-07-13T09:10:27;100977.56;;;19.96;63.22
13952;BME280;39535;52.192;9.886;2023-07-13T09:13:02;101012.81;;;19.98;62.20
13952;BME280;39535;52.192;9.886;2023-07-13T09:15:36;101034.00;;;19.98;61.15
13952;BME280;39535;52.192;9.886;2023-07-13T09:18:08;101027.16;;;20.12;62.22
13952;BME280;39535;52.192;9.886;2023-07-13T09:20:39;101029.59;;;20.16;62.25
13952;BME280;39535;52.192;9.886;2023-07-13T09:23:14;101060.63;;;20.14;61.59
13952;BME280;39535;52.192;9.886;2023-07-13T09:25:45;101054.34;;;20.34;61.23
13952;BME280;39535;52.192;9.886;2023-07-13T09:28:16;101087.44;;;20.26;60.56
13952;BME280;39535;52.192;9.886;2023-07-13T09:30:51;101090.56;;;19.97;60.92
13952;BME280;39535;52.192;9.886;2023-07-13T09:33:18;101061.38;;;19.99;61.91
13952;BME280;39535;52.192;9.886;2023-07-13T09:35:44;101040.28;;;19.96;62.16
13952;BME280;39535;52.192;9.886;2023-07-13T09:38:13;101055.50;;;19.92;61.19
13952;BME280;39535;52.192;9.886;2023-07-13T09:40:53;101058.88;;;20.13;61.86
13952;BME280;39535;52.192;9.886;2023-07-13T09:43:24;101065.56;;;20.03;61.10
13952;BME280;39535;52.192;9.886;2023-07-13T09:45:53;101061.13;;;20.03;61.36
13952;BME280;39535;52.192;9.886;2023-07-13T09:48:19;101053.81;;;20.09;61.45
13952;BME280;39535;52.192;9.886;2023-07-13T09:50:46;101075.69;;;20.14;60.29
13952;BME280;39535;52.192;9.886;2023-07-13T09:53:13;101054.56;;;20.30;61.16
13952;BME280;39535;52.192;9.886;2023-07-13T09:55:42;101087.84;;;20.35;59.56
13952;BME280;39535;52.192;9.886;2023-07-13T09:58:12;101106.03;;;20.43;59.17
13952;BME280;39535;52.192;9.886;2023-07-13T10:00:40;101097.03;;;20.65;60.40
13952;BME280;39535;52.192;9.886;2023-07-13T10:03:17;101102.09;;;20.87;59.82
13952;BME280;39535;52.192;9.886;2023-07-13T10:05:46;101138.97;;;20.75;58.82
13952;BME280;39535;52.192;9.886;2023-07-13T10:08:17;101149.41;;;20.78;58.81
13952;BME280;39535;52.192;9.886;2023-07-13T10:10:45;101168.78;;;20.80;58.27
13952;BME280;39535;52.192;9.886;2023-07-13T10:13:28;101149.81;;;21.06;59.11
13952;BME280;39535;52.192;9.886;2023-07-13T10:15:57;101205.84;;;20.82;56.21
13952;BME280;39535;52.192;9.886;2023-07-13T10:18:26;101216.81;;;20.93;57.20
13952;BME280;39535;52.192;9.886;2023-07-13T10:21:08;101214.03;;;20.95;57.21
13952;BME280;39535;52.192;9.886;2023-07-13T10:23:36;101201.81;;;21.10;57.59
13952;BME280;39535;52.192;9.886;2023-07-13T10:26:03;101202.97;;;21.21;58.42
13952;BME280;39535;52.192;9.886;2023-07-13T10:28:34;101220.00;;;21.35;56.52
13952;BME280;39535;52.192;9.886;2023-07-13T10:31:04;101277.50;;;21.36;55.07
13952;BME280;39535;52.192;9.886;2023-07-13T10:33:32;101292.78;;;21.13;54.81
13952;BME280;39535;52.192;9.886;2023-07-13T10:36:04;101277.84;;;20.93;56.05
13952;BME280;39535;52.192;9.886;2023-07-13T10:38:32;101247.72;;;21.12;57.14
13952;BME280;39535;52.192;9.886;2023-07-13T10:41:03;101244.69;;;21.37;56.66
13952;BME280;39535;52.192;9.886;2023-07-13T10:43:33;101252.66;;;21.37;55.63
13952;BME280;39535;52.192;9.886;2023-07-13T10:46:03;101283.53;;;21.57;54.36
13952;BME280;39535;52.192;9.886;2023-07-13T10:48:33;101297.28;;;21.65;54.73
13952;BME280;39535;52.192;9.886;2023-07-13T10:51:03;101327.94;;;21.55;53.49
13952;BME280;39535;52.192;9.886;2023-07-13T10:53:33;101332.31;;;21.73;54.79
13952;BME280;39535;52.192;9.886;2023-07-13T10:56:01;101359.59;;;21.77;53.77
13952;BME280;39535;52.192;9.886;2023-07-13T10:58:35;101365.03;;;21.91;53.40
13952;BME280;39535;52.192;9.886;2023-07-13T11:01:08;101365.94;;;22.08;54.50
13952;BME280;39535;52.192;9.886;2023-07-13T11:03:46;101372.75;;;22.13;53.37
13952;BME280;39535;52.192;9.886;2023-07-13T11:06:16;101378.09;;;21.96;53.33
13952;BME280;39535;52.192;9.886;2023-07-13T11:08:53;101361.03;;;22.00;53.55
13952;BME280;39535;52.192;9.886;2023-07-13T11:11:35;101373.47;;;22.17;52.33
13952;BME280;39535;52.192;9.886;2023-07-13T11:14:04;101420.09;;;22.07;51.14
13952;BME280;39535;52.192;9.886;2023-07-13T11:16:42;101448.63;;;22.03;51.77
13952;BME280;39535;52.192;9.886;2023-07-13T11:19:43;101451.44;;;21.83;51.30
13952;BME280;39535;52.192;9.886;2023-07-13T11:22:16;101443.28;;;21.68;52.51
13952;BME280;39535;52.192;9.886;2023-07-13T11:25:21;101442.72;;;21.42;51.78
13952;BME280;39535;52.192;9.886;2023-07-13T11:27:52;101418.03;;;21.40;52.52
13952;BME280;39535;52.192;9.886;2023-07-13T11:30:35;101393.78;;;21.48;52.78
13952;BME280;39535;52.192;9.886;2023-07-13T11:33:04;101367.53;;;21.59;53.63
13952;BME280;39535;52.192;9.886;2023-07-13T11:35:44;101355.81;;;21.98;53.38
13952;BME280;39535;52.192;9.886;2023-07-13T11:38:14;101357.72;;;22.30;52.05
13952;BME280;39535;52.192;9.886;2023-07-13T11:40:44;101419.09;;;22.27;50.99
13952;BME280;39535;52.192;9.886;2023-07-13T11:43:13;101451.97;;;22.59;50.42
13952;BME280;39535;52.192;9.886;2023-07-13T11:45:40;101490.56;;;22.68;49.35
13952;BME280;39535;52.192;9.886;2023-07-13T11:48:18;101506.06;;;23.58;48.71
13952;BME280;39535;52.192;9.886;2023-07-13T11:50:51;101573.97;;;24.30;46.82
13952;BME280;39535;52.192;9.886;2023-07-13T11:53:19;101632.84;;;24.73;47.21
13952;BME280;39535;52.192;9.886;2023-07-13T11:55:45;101692.75;;;24.37;45.82
13952;BME280;39535;52.192;9.886;2023-07-13T11:58:18;101660.59;;;23.59;48.13
13952;BME280;39535;52.192;9.886;2023-07-13T12:00:47;101587.41;;;23.33;49.53
13952;BME280;39535;52.192;9.886;2023-07-13T12:03:18;101540.28;;;23.50;49.87
13952;BME280;39535;52.192;9.886;2023-07-13T12:05:57;101571.59;;;23.94;46.77
13952;BME280;39535;52.192;9.886;2023-07-13T12:08:24;101600.53;;;23.86;47.27
13952;BME280;39535;52.192;9.886;2023-07-13T12:11:04;101614.97;;;24.60;47.39
13952;BME280;39535;52.192;9.886;2023-07-13T12:13:36;101643.72;;;24.70;46.49
13952;BME280;39535;52.192;9.886;2023-07-13T12:16:12;101682.72;;;24.73;46.17
13952;BME280;39535;52.192;9.886;2023-07-13T12:18:42;101700.22;;;23.83;46.04
13952;BME280;39535;52.192;9.886;2023-07-13T12:21:13;101661.63;;;23.57;47.34
13952;BME280;39535;52.192;9.886;2023-07-13T12:23:43;101640.31;;;23.57;46.93
13952;BME280;39535;52.192;9.886;2023-07-13T12:26:11;101598.34;;;23.76;47.81
13952;BME280;39535;52.192;9.886;2023-07-13T12:28:44;101589.69;;;24.05;47.46
13952;BME280;39535;52.192;9.886;2023-07-13T12:31:24;101572.81;;;23.88;48.30
13952;BME280;39535;52.192;9.886;2023-07-13T12:33:56;101555.59;;;23.62;48.74
13952;BME280;39535;52.192;9.886;2023-07-13T12:36:25;101544.50;;;23.38;48.56
13952;BME280;39535;52.192;9.886;2023-07-13T12:38:52;101531.88;;;22.75;49.70
13952;BME280;39535;52.192;9.886;2023-07-13T12:41:18;101464.19;;;22.79;51.28
13952;BME280;39535;52.192;9.886;2023-07-13T12:43:46;101447.97;;;23.33;49.91
13952;BME280;39535;52.192;9.886;2023-07-13T12:46:18;101499.03;;;23.57;48.68
13952;BME280;39535;52.192;9.886;2023-07-13T12:48:48;101530.75;;;23.30;47.93
13952;BME280;39535;52.192;9.886;2023-07-13T12:51:15;101555.94;;;23.40;48.01
13952;BME280;39535;52.192;9.886;2023-07-13T12:53:48;101534.03;;;23.67;48.87
13952;BME280;39535;52.192;9.886;2023-07-13T12:56:19;101529.22;;;23.89;48.17
13952;BME280;39535;52.192;9.886;2023-07-13T12:58:48;101563.44;;;23.65;47.33